createdAt,value
2023-04-17T00:02:07.027Z,1.98
2023-04-17T00:05:09.520Z,2.08
2023-04-17T00:08:11.732Z,1.92
2023-04-17T00:11:13.735Z,1.77
2023-04-17T00:14:15.960Z,1.98
2023-04-17T00:17:17.912Z,2.22
2023-04-17T00:20:20.045Z,2.00
2023-04-17T00:23:22.007Z,2.30
2023-04-17T00:26:24.603Z,1.87
2023-04-17T00:29:27.077Z,1.92
2023-04-17T00:32:29.487Z,2.00
2023-04-17T00:35:31.451Z,2.13
2023-04-17T00:38:33.479Z,2.00
2023-04-17T00:41:35.942Z,1.90
2023-04-17T00:44:38.463Z,1.80
2023-04-17T00:47:40.886Z,2.03
2023-04-17T00:50:43.418Z,1.92
2023-04-17T00:53:45.936Z,2.33
2023-04-17T00:56:47.952Z,2.20
2023-04-17T00:59:50.282Z,1.88
2023-04-17T01:02:52.894Z,2.15
2023-04-17T01:05:55.011Z,1.95
2023-04-17T01:09:15.718Z,2.20
2023-04-17T01:12:21.201Z,1.90
2023-04-17T01:15:23.439Z,2.10
2023-04-17T01:18:25.443Z,2.10
2023-04-17T01:21:28.257Z,1.88
2023-04-17T01:24:30.994Z,2.45
2023-04-17T01:27:33.052Z,1.90
2023-04-17T01:30:35.683Z,1.75
2023-04-17T01:33:43.216Z,2.10
2023-04-17T01:36:45.270Z,1.80
2023-04-17T01:39:47.322Z,1.90
2023-04-17T01:42:49.328Z,1.80
2023-04-17T01:45:51.533Z,2.15
2023-04-17T01:48:53.559Z,2.08
2023-04-17T01:51:55.595Z,2.00
2023-04-17T01:54:57.630Z,1.90
2023-04-17T01:57:59.657Z,1.97
2023-04-17T02:01:01.620Z,2.08
2023-04-17T02:04:04.222Z,2.15
2023-04-17T02:07:06.321Z,1.92
2023-04-17T02:10:08.662Z,2.23
2023-04-17T02:13:12.449Z,2.00
2023-04-17T02:16:16.941Z,1.88
2023-04-17T02:19:18.973Z,2.35
2023-04-17T02:22:21.097Z,1.97
2023-04-17T02:25:23.153Z,2.10
2023-04-17T02:28:28.696Z,1.98
2023-04-17T02:31:31.227Z,1.80
2023-04-17T02:34:33.715Z,2.00
2023-04-17T02:37:37.224Z,2.03
2023-04-17T02:40:39.590Z,2.22
2023-04-17T02:43:41.886Z,3.45
2023-04-17T02:46:45.761Z,2.00
2023-04-17T02:49:48.746Z,2.27
2023-04-17T02:52:50.847Z,2.17
2023-04-17T02:55:53.297Z,2.22
2023-04-17T02:58:58.042Z,2.08
2023-04-17T03:02:00.660Z,1.93
2023-04-17T03:05:04.274Z,2.28
2023-04-17T03:08:06.717Z,2.10
2023-04-17T03:11:16.044Z,1.75
2023-04-17T03:14:18.150Z,2.20
2023-04-17T03:17:21.006Z,2.10
2023-04-17T03:20:23.339Z,2.42
2023-04-17T03:23:25.417Z,2.22
2023-04-17T03:26:27.919Z,2.07
2023-04-17T03:29:30.073Z,2.13
2023-04-17T03:32:32.912Z,2.38
2023-04-17T03:35:35.147Z,1.75
2023-04-17T03:38:42.314Z,2.00
2023-04-17T03:41:44.604Z,2.10
2023-04-17T03:44:47.188Z,2.40
2023-04-17T03:47:49.444Z,2.00
2023-04-17T03:50:51.591Z,1.80
2023-04-17T03:53:54.054Z,2.47
2023-04-17T03:56:57.089Z,2.20
2023-04-17T03:59:59.993Z,2.08
2023-04-17T04:03:09.934Z,2.33
2023-04-17T04:06:20.325Z,2.05
2023-04-17T04:09:24.833Z,1.90
2023-04-17T04:12:26.989Z,1.87
2023-04-17T04:15:29.209Z,2.30
2023-04-17T04:18:36.576Z,2.60
2023-04-17T04:21:42.172Z,2.10
2023-04-17T04:24:47.421Z,2.30
2023-04-17T04:27:53.790Z,2.43
2023-04-17T04:31:20.672Z,2.10
2023-04-17T04:34:25.884Z,2.33
2023-04-17T04:37:30.154Z,2.17
2023-04-17T04:40:38.435Z,2.27
2023-04-17T04:43:42.517Z,1.83
2023-04-17T04:46:46.208Z,2.33
2023-04-17T04:49:48.493Z,2.67
2023-04-17T04:52:53.872Z,2.80
2023-04-17T04:56:08.123Z,2.60
2023-04-17T04:59:11.704Z,2.40
2023-04-17T05:02:21.230Z,2.50
2023-04-17T05:05:25.578Z,2.77
2023-04-17T05:08:29.604Z,2.65
2023-04-17T05:11:40.649Z,2.72
2023-04-17T05:14:43.165Z,2.57
2023-04-17T05:17:45.847Z,2.80
2023-04-17T05:20:49.519Z,2.95
2023-04-17T05:23:52.593Z,2.33
2023-04-17T05:26:54.822Z,2.65
2023-04-17T05:29:57.094Z,2.67
2023-04-17T05:33:00.928Z,3.45
2023-04-17T05:36:16.541Z,2.92
2023-04-17T05:39:27.201Z,2.60
2023-04-17T05:42:39.075Z,3.30
2023-04-17T05:45:43.602Z,2.80
2023-04-17T05:48:45.765Z,2.85
2023-04-17T05:51:48.058Z,3.10
2023-04-17T05:54:50.378Z,2.90
2023-04-17T05:57:56.214Z,3.17
2023-04-17T06:01:00.207Z,3.40
2023-04-17T06:04:04.246Z,3.50
2023-04-17T06:07:08.276Z,3.07
2023-04-17T06:10:11.229Z,3.00
2023-04-17T06:13:28.508Z,2.72
2023-04-17T06:16:32.384Z,3.13
2023-04-17T06:19:34.744Z,3.22
2023-04-17T06:22:37.424Z,3.10
2023-04-17T06:25:40.513Z,3.33
2023-04-17T06:28:42.754Z,3.30
2023-04-17T06:31:48.780Z,3.97
2023-04-17T06:34:59.487Z,3.72
2023-04-17T06:38:31.120Z,4.03
2023-04-17T06:41:34.045Z,3.20
2023-04-17T06:44:36.755Z,3.65
2023-04-17T06:47:38.862Z,3.40
2023-04-17T06:50:41.164Z,3.67
2023-04-17T06:53:43.959Z,3.80
2023-04-17T06:56:46.153Z,3.20
2023-04-17T06:59:48.479Z,3.63
2023-04-17T07:02:51.544Z,3.45
2023-04-17T07:05:54.096Z,3.17
2023-04-17T07:08:56.150Z,3.57
2023-04-17T07:11:58.398Z,3.20
2023-04-17T07:15:04.199Z,3.17
2023-04-17T07:18:09.812Z,2.60
2023-04-17T07:21:22.523Z,2.58
2023-04-17T07:24:25.452Z,2.93
2023-04-17T07:27:28.410Z,2.30
2023-04-17T07:30:31.048Z,2.75
2023-04-17T07:33:33.465Z,2.70
2023-04-17T07:36:35.890Z,2.90
2023-04-17T07:39:38.041Z,3.30
2023-04-17T07:42:40.546Z,2.57
2023-04-17T07:45:42.917Z,2.60
2023-04-17T07:48:45.101Z,2.20
2023-04-17T07:51:47.123Z,3.03
2023-04-17T07:54:49.592Z,2.60
2023-04-17T07:57:53.203Z,2.97
2023-04-17T08:00:55.414Z,2.28
2023-04-17T08:03:58.592Z,3.38
2023-04-17T08:07:01.156Z,2.80
2023-04-17T08:10:04.245Z,2.70
2023-04-17T08:13:06.417Z,2.43
2023-04-17T08:16:08.918Z,2.85
2023-04-17T08:19:11.494Z,2.22
2023-04-17T08:22:14.142Z,2.58
2023-04-17T08:25:16.460Z,2.47
2023-04-17T08:28:18.713Z,2.50
2023-04-17T08:31:21.001Z,2.30
2023-04-17T08:34:23.652Z,2.30
2023-04-17T08:37:30.966Z,2.10
2023-04-17T08:40:36.834Z,2.70
2023-04-17T08:43:39.443Z,2.57
2023-04-17T08:46:42.345Z,2.25
2023-04-17T08:49:46.101Z,2.40
2023-04-17T08:52:48.735Z,2.65
2023-04-17T08:56:03.090Z,3.10
2023-04-17T08:59:06.397Z,2.80
2023-04-17T09:02:09.200Z,3.00
2023-04-17T09:05:18.698Z,2.92
2023-04-17T09:08:21.858Z,2.65
2023-04-17T09:11:24.481Z,3.40
2023-04-17T09:14:30.417Z,2.73
2023-04-17T09:17:34.272Z,2.63
2023-04-17T09:20:47.878Z,2.35
2023-04-17T09:23:50.792Z,2.15
2023-04-17T09:26:53.412Z,2.43
2023-04-17T09:29:59.472Z,2.93
2023-04-17T09:33:04.909Z,3.20
2023-04-17T09:36:24.537Z,3.13
2023-04-17T09:39:26.846Z,3.08
2023-04-17T09:42:29.503Z,2.97
2023-04-17T09:45:42.853Z,2.63
2023-04-17T09:48:45.138Z,2.97
2023-04-17T09:51:47.802Z,3.40
2023-04-17T09:54:51.298Z,3.42
2023-04-17T09:57:54.083Z,4.17
2023-04-17T10:00:56.704Z,3.87
2023-04-17T10:03:59.675Z,3.72
2023-04-17T10:07:03.182Z,3.20
2023-04-17T10:10:09.433Z,3.20
2023-04-17T10:13:12.627Z,2.90
2023-04-17T10:16:15.012Z,3.00
2023-04-17T10:19:30.416Z,3.30
2023-04-17T10:22:34.126Z,3.05
2023-04-17T10:25:36.844Z,2.70
2023-04-17T10:28:48.707Z,3.00
2023-04-17T10:32:08.903Z,2.80
2023-04-17T10:35:16.398Z,2.30
2023-04-17T10:38:38.888Z,2.45
2023-04-17T10:41:59.589Z,2.70
2023-04-17T10:45:05.479Z,3.07
2023-04-17T10:48:07.870Z,2.90
2023-04-17T10:51:26.768Z,3.13
2023-04-17T10:54:32.198Z,3.42
2023-04-17T10:57:53.565Z,3.42
2023-04-17T11:00:56.006Z,3.33
2023-04-17T11:03:59.691Z,3.20
2023-04-17T11:07:02.338Z,3.25
2023-04-17T11:10:07.602Z,3.70
2023-04-17T11:13:10.097Z,3.38
2023-04-17T11:16:12.202Z,3.50
2023-04-17T11:19:30.622Z,3.23
2023-04-17T11:22:49.501Z,3.33
2023-04-17T11:25:54.803Z,3.63
2023-04-17T11:28:57.440Z,3.55
2023-04-17T11:32:01.049Z,3.20
2023-04-17T11:35:04.486Z,3.77
2023-04-17T11:38:14.440Z,3.47
2023-04-17T11:41:17.323Z,2.88
2023-04-17T11:44:23.332Z,2.90
2023-04-17T11:47:25.748Z,2.50
2023-04-17T11:50:28.905Z,2.53
2023-04-17T11:53:32.578Z,2.63
2023-04-17T11:56:34.826Z,3.03
2023-04-17T11:59:37.971Z,2.80
2023-04-17T12:02:40.632Z,2.97
2023-04-17T12:05:43.292Z,2.93
2023-04-17T12:08:45.364Z,3.15
2023-04-17T12:11:47.508Z,3.17
2023-04-17T12:14:50.062Z,3.28
2023-04-17T12:17:52.313Z,2.90
2023-04-17T12:20:54.356Z,3.60
2023-04-17T12:23:56.793Z,3.58
2023-04-17T12:27:01.859Z,3.40
2023-04-17T12:30:06.145Z,3.58
2023-04-17T12:33:08.485Z,3.90
2023-04-17T12:36:10.975Z,4.30
2023-04-17T12:39:13.899Z,3.72
2023-04-17T12:42:16.379Z,3.75
2023-04-17T12:45:18.692Z,3.80
2023-04-17T12:48:20.696Z,3.70
2023-04-17T12:51:54.702Z,3.30
2023-04-17T12:55:01.320Z,3.28
2023-04-17T12:58:03.389Z,3.30
2023-04-17T13:01:05.646Z,3.92
2023-04-17T13:04:07.986Z,4.00
2023-04-17T13:07:10.813Z,3.43
2023-04-17T13:10:12.918Z,3.80
2023-04-17T13:13:15.431Z,3.40
2023-04-17T13:16:18.029Z,4.05
2023-04-17T13:19:20.876Z,3.40
2023-04-17T13:22:23.978Z,3.87
2023-04-17T13:25:26.397Z,4.40
2023-04-17T13:28:28.426Z,3.60
2023-04-17T13:31:30.540Z,3.80
2023-04-17T13:34:32.815Z,3.50
2023-04-17T13:37:41.372Z,4.07
2023-04-17T13:40:43.580Z,3.50
2023-04-17T13:43:47.189Z,3.67
2023-04-17T13:46:49.482Z,3.28
2023-04-17T13:49:51.905Z,3.80
2023-04-17T13:52:54.249Z,3.43
2023-04-17T13:55:56.361Z,4.10
2023-04-17T13:58:58.329Z,3.80
2023-04-17T14:02:03.882Z,3.55
2023-04-17T14:05:06.931Z,4.40
2023-04-17T14:08:09.066Z,4.10
2023-04-17T14:11:14.756Z,4.03
2023-04-17T14:14:18.409Z,3.80
2023-04-17T14:17:20.689Z,3.70
2023-04-17T14:20:25.197Z,3.17
2023-04-17T14:23:28.822Z,2.87
2023-04-17T14:26:34.277Z,3.10
2023-04-17T14:29:36.502Z,3.75
2023-04-17T14:32:39.228Z,3.13
2023-04-17T14:35:41.508Z,3.90
2023-04-17T14:38:48.993Z,3.60
2023-04-17T14:41:51.001Z,3.75
2023-04-17T14:44:53.101Z,3.03
2023-04-17T14:47:55.530Z,3.92
2023-04-17T14:50:59.639Z,3.77
2023-04-17T14:54:01.601Z,3.90
2023-04-17T14:57:03.685Z,3.80
2023-04-17T15:00:06.637Z,5.90
2023-04-17T15:03:08.913Z,5.07
2023-04-17T15:06:11.116Z,5.73
2023-04-17T15:09:14.261Z,4.50
2023-04-17T15:12:17.171Z,4.90
2023-04-17T15:15:19.315Z,4.78
2023-04-17T15:18:22.378Z,4.10
2023-04-17T15:21:24.388Z,3.67
2023-04-17T15:24:26.866Z,4.00
2023-04-17T15:27:29.241Z,4.43
2023-04-17T15:30:31.653Z,4.15
2023-04-17T15:33:33.846Z,4.63
2023-04-17T15:36:35.863Z,5.10
2023-04-17T15:39:38.206Z,4.20
2023-04-17T15:42:40.276Z,4.15
2023-04-17T15:45:42.456Z,4.30
2023-04-17T15:48:46.709Z,3.92
2023-04-17T15:51:52.378Z,4.00
2023-04-17T15:54:54.339Z,3.60
2023-04-17T15:57:56.718Z,3.95
2023-04-17T16:00:59.236Z,3.90
2023-04-17T16:04:01.523Z,3.25
2023-04-17T16:07:05.796Z,4.00
2023-04-17T16:10:14.640Z,3.27
2023-04-17T16:13:17.344Z,3.80
2023-04-17T16:16:20.163Z,4.05
2023-04-17T16:19:22.745Z,3.85
2023-04-17T16:22:24.922Z,5.30
2023-04-17T16:25:29.957Z,3.90
2023-04-17T16:28:38.309Z,3.92
2023-04-17T16:31:41.282Z,3.47
2023-04-17T16:34:43.648Z,3.30
2023-04-17T16:37:46.528Z,3.47
2023-04-17T16:40:48.828Z,3.43
2023-04-17T16:43:51.360Z,3.13
2023-04-17T16:47:11.973Z,3.42
2023-04-17T16:50:14.410Z,3.30
2023-04-17T16:53:16.839Z,3.53
2023-04-17T16:56:18.809Z,3.80
2023-04-17T16:59:20.810Z,3.63
2023-04-17T17:02:22.937Z,3.33
2023-04-17T17:05:25.973Z,4.00
2023-04-17T17:08:28.110Z,3.90
2023-04-17T17:11:30.093Z,3.90
2023-04-17T17:14:38.621Z,4.32
2023-04-17T17:17:40.803Z,4.45
2023-04-17T17:20:43.258Z,5.20
2023-04-17T17:23:45.242Z,5.30
2023-04-17T17:26:47.782Z,4.70
2023-04-17T17:29:49.799Z,3.95
2023-04-17T17:32:51.886Z,3.78
2023-04-17T17:35:54.032Z,3.45
2023-04-17T17:38:56.642Z,3.87
2023-04-17T17:41:59.146Z,3.73
2023-04-17T17:45:01.190Z,3.70
2023-04-17T17:48:03.203Z,4.03
2023-04-17T17:51:05.450Z,4.07
2023-04-17T17:54:07.992Z,3.83
2023-04-17T17:57:10.570Z,3.60
2023-04-17T18:00:13.639Z,3.22
2023-04-17T18:03:16.895Z,3.70
2023-04-17T18:06:19.360Z,3.63
2023-04-17T18:09:21.313Z,2.77
2023-04-17T18:12:23.706Z,3.17
2023-04-17T18:15:26.163Z,3.15
2023-04-17T18:18:28.644Z,3.00
2023-04-17T18:21:41.075Z,3.08
2023-04-17T18:24:43.570Z,2.50
2023-04-17T18:27:45.948Z,2.83
2023-04-17T18:30:47.847Z,2.78
2023-04-17T18:33:50.407Z,3.00
2023-04-17T18:36:53.041Z,3.08
2023-04-17T18:39:55.044Z,2.50
2023-04-17T18:42:57.280Z,3.03
2023-04-17T18:46:02.611Z,2.65
2023-04-17T18:49:04.844Z,2.42
2023-04-17T18:52:06.885Z,2.78
2023-04-17T18:55:09.259Z,3.00
2023-04-17T18:58:11.218Z,3.20
2023-04-17T19:01:13.251Z,2.55
2023-04-17T19:04:15.529Z,3.22
2023-04-17T19:07:18.137Z,2.90
2023-04-17T19:10:20.280Z,2.77
2023-04-17T19:13:22.797Z,3.20
2023-04-17T19:16:24.809Z,3.15
2023-04-17T19:19:26.884Z,2.50
2023-04-17T19:22:29.031Z,2.60
2023-04-17T19:25:31.583Z,2.33
2023-04-17T19:28:33.512Z,2.37
2023-04-17T19:31:35.507Z,3.03
2023-04-17T19:34:37.602Z,2.25
2023-04-17T19:37:39.676Z,2.35
2023-04-17T19:40:41.814Z,2.23
2023-04-17T19:43:44.288Z,2.07
2023-04-17T19:46:46.627Z,2.55
2023-04-17T19:49:49.024Z,2.17
2023-04-17T19:52:51.181Z,2.40
2023-04-17T19:55:53.174Z,2.60
2023-04-17T19:58:57.687Z,2.10
2023-04-17T20:01:59.677Z,1.80
2023-04-17T20:05:01.988Z,1.90
2023-04-17T20:08:04.094Z,1.60
2023-04-17T20:11:06.517Z,2.20
2023-04-17T20:14:14.762Z,2.03
2023-04-17T20:17:16.993Z,2.10
2023-04-17T20:20:25.491Z,2.10
2023-04-17T20:23:47.815Z,2.58
2023-04-17T20:26:50.213Z,2.20
2023-04-17T20:29:52.865Z,2.13
2023-04-17T20:32:55.612Z,2.20
2023-04-17T20:35:57.818Z,2.25
2023-04-17T20:38:59.771Z,2.33
2023-04-17T20:42:02.344Z,2.37
2023-04-17T20:45:05.023Z,2.60
2023-04-17T20:48:07.170Z,2.20
2023-04-17T20:51:09.215Z,2.40
2023-04-17T20:54:11.415Z,2.30
2023-04-17T20:57:14.877Z,2.33
2023-04-17T21:00:17.373Z,2.83
2023-04-17T21:03:19.636Z,2.22
2023-04-17T21:06:22.842Z,2.72
2023-04-17T21:09:26.296Z,3.25
2023-04-17T21:12:28.671Z,4.33
2023-04-17T21:15:31.166Z,2.80
2023-04-17T21:18:33.082Z,2.85
2023-04-17T21:21:36.152Z,2.42
2023-04-17T21:24:38.549Z,2.50
2023-04-17T21:27:41.690Z,2.33
2023-04-17T21:30:44.114Z,2.10
2023-04-17T21:33:46.849Z,2.22
2023-04-17T21:36:51.822Z,2.28
2023-04-17T21:39:54.674Z,2.65
2023-04-17T21:42:56.660Z,2.17
2023-04-17T21:45:59.276Z,2.23
2023-04-17T21:49:01.438Z,2.38
2023-04-17T21:52:03.504Z,2.72
2023-04-17T21:55:07.813Z,2.50
2023-04-17T21:58:10.237Z,2.80
2023-04-17T22:01:12.634Z,2.30
2023-04-17T22:04:14.879Z,2.50
2023-04-17T22:07:18.521Z,2.50
2023-04-17T22:10:20.752Z,2.50
2023-04-17T22:13:23.290Z,2.43
2023-04-17T22:16:25.429Z,2.30
2023-04-17T22:19:27.392Z,2.70
2023-04-17T22:22:29.409Z,2.50
2023-04-17T22:25:31.761Z,2.13
2023-04-17T22:28:34.168Z,2.67
2023-04-17T22:31:36.802Z,2.47
2023-04-17T22:34:41.241Z,1.70
2023-04-17T22:37:44.698Z,2.08
2023-04-17T22:40:46.939Z,2.08
2023-04-17T22:43:49.504Z,2.40
2023-04-17T22:46:51.500Z,2.00
2023-04-17T22:49:55.190Z,2.22
2023-04-17T22:52:57.347Z,2.33
2023-04-17T22:56:00.239Z,2.50
2023-04-17T22:59:02.199Z,2.37
2023-04-17T23:02:04.636Z,2.20
2023-04-17T23:05:07.193Z,2.40
2023-04-17T23:08:09.780Z,3.15
2023-04-17T23:11:11.713Z,2.50
2023-04-17T23:14:13.999Z,2.30
2023-04-17T23:17:16.245Z,2.65
2023-04-17T23:20:18.404Z,3.08
2023-04-17T23:23:20.664Z,2.95
2023-04-17T23:26:22.782Z,2.70
2023-04-17T23:29:24.927Z,3.33
2023-04-17T23:32:27.613Z,2.72
2023-04-17T23:35:29.624Z,3.05
2023-04-17T23:38:32.125Z,3.03
2023-04-17T23:41:34.666Z,2.70
2023-04-17T23:44:37.049Z,2.87
2023-04-17T23:47:39.043Z,3.10
2023-04-17T23:50:41.128Z,3.13
2023-04-17T23:53:43.165Z,2.72
2023-04-17T23:56:45.517Z,2.80
2023-04-17T23:59:47.467Z,2.83
